Surface/Precipitation History
04/17/2019 22:42  to  4/18/2019 22:42
Change End Date:
Date/Time
(MDT)
Sf
Temp Chem Water Layer Surface Precipitation
Sfc Pvt Sub Frz Factor Pct Dpth DpthThk IcePct Cond Salin FI Type Intens Accum Rate
04/18/2019 22:29 Dry 58.1F - 55F - - - - - - 6 mhos 457 - None None - -
04/18/2019 22:21 Dry 58.1F - 55F - - - - - - 9 mhos 651 - None None - -
04/18/2019 22:14 Dry 58.3F - 55F - - - - - - 12 mhos 889 - None None - -
04/18/2019 22:11 Dry 58.5F - 54F - - - - - - 14 mhos 1093 - None None - -
04/18/2019 22:01 Dry 58.6F - 54F - - - - - - 6 mhos 408 - None None - -
04/18/2019 21:59 Dry 58.6F - 54F - - - - - - 6 mhos 412 - None None - -
04/18/2019 21:51 Dry 59.2F - 54F - - - - - - 5 mhos 380 - None None - -
04/18/2019 21:44 Dry 59.9F - 54F - - - - - - 6 mhos 453 - None None - -
04/18/2019 21:41 Dry 59.9F - 54F - - - - - - 6 mhos 431 - None None - -
04/18/2019 21:31 Dry 60.3F - 54F - - - - - - 4 mhos 301 - None None - -
04/18/2019 21:29 Dry 60.4F - 54F - - - - - - 4 mhos 312 - None None - -
04/18/2019 21:21 Dry 60.4F - 54F - - - - - - 5 mhos 342 - None None - -
04/18/2019 21:14 Dry 60.4F - 54F - - - - - - 6 mhos 426 - None None - -
04/18/2019 21:11 Dry 60.6F - 54F - - - - - - 7 mhos 514 - None None - -
04/18/2019 21:00 Dry 61.3F - 54F - - - - - - 5 mhos 360 - None None - -
Date/Time
(MDT)
Sf
Temp Chem Water Layer Surface Precipitation
Sfc Pvt Sub Frz Factor Pct Dpth DpthThk IcePct Cond Salin FI Type Intens Accum Rate
04/18/2019 20:58 Dry 61.3F - 54F - - - - - - 6 mhos 410 - None None - -
04/18/2019 20:50 Dry 61.9F - 54F - - - - - - 7 mhos 518 - None None - -
04/18/2019 20:43 Dry 62.4F - 54F - - - - - - 6 mhos 427 - None None - -
04/18/2019 20:40 Dry 62.4F - 54F - - - - - - 6 mhos 450 - None None - -
04/18/2019 20:30 Dry 63.7F - 54F - - - - - - 6 mhos 429 - None None - -
04/18/2019 20:28 Dry 63.9F - 54F - - - - - - 6 mhos 443 - None None - -
04/18/2019 20:20 Dry 64.6F - 54F - - - - - - 8 mhos 588 - None None - -
04/18/2019 20:14 Dry 65.7F - 54F - - - - - - 10 mhos 729 - None None - -
04/18/2019 20:10 Dry 65.8F - 53F - - - - - - 8 mhos 547 - None None - -
04/18/2019 20:00 Dry 66.7F - 53F - - - - - - 6 mhos 403 - None None - -
04/18/2019 19:59 Dry 66.9F - 53F - - - - - - 6 mhos 404 - None None - -
04/18/2019 19:50 Dry 67.8F - 53F - - - - - - 5 mhos 366 - None None - -
04/18/2019 19:44 Dry 68.5F - 53F - - - - - - 8 mhos 535 - None None - -
04/18/2019 19:40 Dry 69.3F - 53F - - - - - - 7 mhos 471 - None None - -
04/18/2019 19:30 Dry 68.9F - 53F - - - - - - 4 mhos 271 - None None - -
Date/Time
(MDT)
Sf
Temp Chem Water Layer Surface Precipitation
Sfc Pvt Sub Frz Factor Pct Dpth DpthThk IcePct Cond Salin FI Type Intens Accum Rate
04/18/2019 19:29 Dry 69.1F - 53F - - - - - - 4 mhos 284 - None None - -
04/18/2019 19:20 Dry 70.0F - 53F - - - - - - 8 mhos 531 - None None - -
04/18/2019 19:14 Dry 70.9F - 53F - - - - - - 5 mhos 328 - None None - -
04/18/2019 19:10 Dry 71.4F - 53F - - - - - - 5 mhos 318 - None None - -
04/18/2019 19:00 Dry 72.0F - 53F - - - - - - 5 mhos 339 - None None - -
04/18/2019 18:58 Dry 72.0F - 53F - - - - - - 5 mhos 351 - None None - -
04/18/2019 18:50 Dry 73.9F - 52F - - - - - - 6 mhos 414 - None None - -
04/18/2019 18:44 Dry 74.8F - 52F - - - - - - 38 mhos 2616 - None None - -
04/18/2019 18:40 Dry 72.9F - 52F - - - - - - 5 mhos 292 - None None - -
04/18/2019 18:30 Dry 75.0F - 52F - - - - - - 4 mhos 259 - None None - -
04/18/2019 18:28 Dry 75.7F - 52F - - - - - - 5 mhos 283 - None None - -
04/18/2019 18:20 Dry 79.3F - 52F - - - - - - 5 mhos 285 - None None - -
04/18/2019 18:13 Dry 74.8F - 52F - - - - - - 0 mhos 0 - None None - -
04/18/2019 18:10 Dry 75.0F - 52F - - - - - - 0 mhos 0 - None None - -
04/18/2019 18:00 Dry 75.9F - 51F - - - - - - 21 mhos 1359 - None None - -
Date/Time
(MDT)
Sf
Temp Chem Water Layer Surface Precipitation
Sfc Pvt Sub Frz Factor Pct Dpth DpthThk IcePct Cond Salin FI Type Intens Accum Rate
04/18/2019 17:58 Dry 76.1F - 51F - - - - - - 24 mhos 1551 - None None - -
04/18/2019 17:50 Dry 77.5F - 51F - - - - - - 36 mhos 2372 - None None - -
04/18/2019 17:43 Dry 79.0F - 51F - - - - - - 23 mhos 1478 - None None - -
04/18/2019 17:40 Dry 80.6F - 51F - - - - - - 10 mhos 578 - None None - -
04/18/2019 17:30 Dry 88.2F - 51F - - - - - - 7 mhos 399 - None None - -
04/18/2019 17:28 Dry 87.8F - 51F - - - - - - 13 mhos 777 - None None - -
04/18/2019 17:19 Dry 86.9F - 51F - - - - - - 8 mhos 456 - None None - -
04/18/2019 17:14 Dry 90.0F - 51F - - - - - - 5 mhos 277 - None None - -
04/18/2019 17:09 Dry 89.2F - 51F - - - - - - 6 mhos 321 - None None - -
04/18/2019 16:59 Dry 89.6F - 50F - - - - - - 4 mhos 246 - None None - -
04/18/2019 16:59 Dry 89.6F - 50F - - - - - - 4 mhos 246 - None None - -
04/18/2019 16:49 Dry 89.6F - 50F - - - - - - 6 mhos 348 - None None - -
04/18/2019 16:43 Dry 88.7F - 50F - - - - - - 6 mhos 335 - None None - -
04/18/2019 16:39 Dry 88.7F - 50F - - - - - - 6 mhos 365 - None None - -
04/18/2019 16:29 Dry 85.5F - 50F - - - - - - 8 mhos 445 - None None - -
Date/Time
(MDT)
Sf
Temp Chem Water Layer Surface Precipitation
Sfc Pvt Sub Frz Factor Pct Dpth DpthThk IcePct Cond Salin FI Type Intens Accum Rate
04/18/2019 16:28 Dry 85.5F - 50F - - - - - - 0 mhos 0 - None None - -
04/18/2019 16:19 Dry 85.6F - 49F - - - - - - 0 mhos 0 - None None - -
04/18/2019 16:13 Dry 88.7F - 49F - - - - - - 0 mhos 0 - None None - -
04/18/2019 16:09 Dry 93.4F - 49F - - - - - - 0 mhos 0 - None None - -
04/18/2019 15:59 Dry 92.5F - 49F - - - - - - 0 mhos 0 - None None - -
04/18/2019 15:58 Dry 91.6F - 49F - - - - - - 0 mhos 0 - None None - -
04/18/2019 15:49 Dry 89.4F - 49F - - - - - - 0 mhos 0 - None None - -
04/18/2019 15:43 Dry 90.7F - 49F - - - - - - 0 mhos 0 - None None - -
04/18/2019 15:39 Dry 91.0F - 49F - - - - - - 0 mhos 0 - None None - -
04/18/2019 15:29 Dry 94.8F - 49F - - - - - - 0 mhos 0 - None None - -
04/18/2019 15:28 Dry 94.8F - 49F - - - - - - 0 mhos 0 - None None - -
04/18/2019 15:19 Dry 97.9F - 49F - - - - - - 0 mhos 0 - None None - -
04/18/2019 15:13 Dry 96.6F - 48F - - - - - - 0 mhos 0 - None None - -
04/18/2019 15:09 Dry 98.4F - 48F - - - - - - 0 mhos 0 - None None - -
04/18/2019 14:59 Dry 101.1F - 48F - - - - - - 0 mhos 0 - None None - -
Date/Time
(MDT)
Sf
Temp Chem Water Layer Surface Precipitation
Sfc Pvt Sub Frz Factor Pct Dpth DpthThk IcePct Cond Salin FI Type Intens Accum Rate
04/18/2019 14:58 Dry 101.1F - 48F - - - - - - 0 mhos 0 - None None - -
04/18/2019 14:49 Dry 97.7F - 48F - - - - - - 0 mhos 0 - None None - -
04/18/2019 14:43 Dry 97.5F - 48F - - - - - - 0 mhos 0 - None None - -
04/18/2019 14:39 Dry 96.6F - 48F - - - - - - 0 mhos 0 - None None - -
04/18/2019 14:29 Dry 93.4F - 48F - - - - - - 0 mhos 0 - None None - -
04/18/2019 14:29 Dry 93.4F - 48F - - - - - - 0 mhos 0 - None None - -
04/18/2019 14:19 Dry 92.5F - 48F - - - - - - 0 mhos 0 - None None - -
04/18/2019 14:14 Dry 94.1F - 48F - - - - - - 0 mhos 0 - None None - -
04/18/2019 14:09 Dry 95.2F - 47F - - - - - - 0 mhos 0 - None None - -
04/18/2019 13:59 Dry 93.6F - 47F - - - - - - 0 mhos 0 - None None - -
04/18/2019 13:58 Dry 93.6F - 47F - - - - - - 0 mhos 0 - None None - -
04/18/2019 13:48 Dry 93.0F - 47F - - - - - - 0 mhos 0 - None None - -
04/18/2019 13:43 Dry 92.5F - 47F - - - - - - 0 mhos 0 - None None - -
04/18/2019 13:38 Dry 91.9F - 47F - - - - - - 0 mhos 0 - None None - -
04/18/2019 13:28 Dry 91.6F - 47F - - - - - - 0 mhos 0 - None None - -
Date/Time
(MDT)
Sf
Temp Chem Water Layer Surface Precipitation
Sfc Pvt Sub Frz Factor Pct Dpth DpthThk IcePct Cond Salin FI Type Intens Accum Rate
04/18/2019 13:28 Dry 91.6F - 47F - - - - - - 0 mhos 0 - None None - -
04/18/2019 13:18 Dry 90.1F - 47F - - - - - - 0 mhos 0 - None None - -
04/18/2019 13:13 Dry 89.6F - 47F - - - - - - 0 mhos 0 - None None - -
04/18/2019 13:08 Dry 88.2F - 47F - - - - - - 0 mhos 0 - None None - -
04/18/2019 12:58 Dry 89.6F - 47F - - - - - - 0 mhos 0 - None None - -
04/18/2019 12:58 Dry 89.6F - 47F - - - - - - 0 mhos 0 - None None - -
04/18/2019 12:48 Dry 88.0F - 47F - - - - - - 0 mhos 0 - None None - -
04/18/2019 12:43 Dry 87.8F - 47F - - - - - - 0 mhos 0 - None None - -
04/18/2019 12:38 Dry 86.9F - 47F - - - - - - 0 mhos 0 - None None - -
04/18/2019 12:28 Dry 84.7F - 47F - - - - - - 0 mhos 0 - None None - -
04/18/2019 12:28 Dry 84.7F - 47F - - - - - - 0 mhos 0 - None None - -
04/18/2019 12:18 Dry 82.6F - 47F - - - - - - 0 mhos 0 - None None - -
04/18/2019 12:13 Dry 82.9F - 47F - - - - - - 0 mhos 0 - None None - -
04/18/2019 12:08 Dry 82.6F - 47F - - - - - - 0 mhos 0 - None None - -
04/18/2019 11:58 Dry 80.2F - 47F - - - - - - 4 mhos 230 - None None - -
Date/Time
(MDT)
Sf
Temp Chem Water Layer Surface Precipitation
Sfc Pvt Sub Frz Factor Pct Dpth DpthThk IcePct Cond Salin FI Type Intens Accum Rate
04/18/2019 11:58 Dry 80.2F - 47F - - - - - - 4 mhos 230 - None None - -
04/18/2019 11:48 Dry 77.5F - 47F - - - - - - 9 mhos 567 - None None - -
04/18/2019 11:43 Dry 76.6F - 47F - - - - - - 8 mhos 476 - None None - -
04/18/2019 11:38 Dry 76.1F - 47F - - - - - - 12 mhos 761 - None None - -
04/18/2019 11:28 Dry 73.6F - 47F - - - - - - 8 mhos 518 - None None - -
04/18/2019 11:28 Dry 73.6F - 47F - - - - - - 8 mhos 518 - None None - -
04/18/2019 11:18 Dry 70.5F - 47F - - - - - - 11 mhos 742 - None None - -
04/18/2019 11:14 Dry 68.9F - 46F - - - - - - 15 mhos 1024 - None None - -
04/18/2019 11:08 Dry 64.2F - 47F - - - - - - 16 mhos 1184 - None None - -
04/18/2019 11:00 Dry 62.2F - 47F - - - - - - 24 mhos 1826 - None None - -
04/18/2019 10:58 Dry 62.2F - 47F - - - - - - 18 mhos 1330 - None None - -
04/18/2019 10:48 Dry 62.1F - 47F - - - - - - 35 mhos 2707 - None None - -
04/18/2019 10:43 Dry 62.2F - 47F - - - - - - 12 mhos 892 - None None - -
04/18/2019 10:38 Dry 63.0F - 47F - - - - - - 26 mhos 1907 - None None - -
04/18/2019 10:29 Dry 61.7F - 47F - - - - - - 33 mhos 2512 - None None - -
Date/Time
(MDT)
Sf
Temp Chem Water Layer Surface Precipitation
Sfc Pvt Sub Frz Factor Pct Dpth DpthThk IcePct Cond Salin FI Type Intens Accum Rate
04/18/2019 10:28 Dry 61.5F - 47F - - - - - - 40 mhos 3142 - None None - -
04/18/2019 10:18 Dry 61.0F - 47F - - - - - - 40 mhos 3230 - None None - -
04/18/2019 10:14 Dry 60.8F - 47F - - - - - - 19 mhos 1437 - None None - -
04/18/2019 10:08 Dry 59.9F - 47F - - - - - - 25 mhos 1921 - None None - -
04/18/2019 09:59 Dry 58.6F - 47F - - - - - - 30 mhos 2355 - None None - -
04/18/2019 09:57 Dry 58.6F - 47F - - - - - - 40 mhos 3272 - None None - -
04/18/2019 09:47 Dry 57.9F - 47F - - - - - - 34 mhos 2737 - None None - -
04/18/2019 09:45 Dry 57.7F - 47F - - - - - - 15 mhos 1123 - None None - -
04/18/2019 09:37 Dry 57.6F - 47F - - - - - - 34 mhos 2794 - None None - -
04/18/2019 09:30 Dry 58.3F - 47F - - - - - - 43 mhos 3578 - None None - -
04/18/2019 09:27 Dry 57.2F - 47F - - - - - - 17 mhos 1277 - None None - -
04/18/2019 09:17 Dry 53.6F - 47F - - - - - - 29 mhos 2392 - None None - -
04/18/2019 09:14 Dry 52.7F - 47F - - - - - - 46 mhos 4147 - None None - -
04/18/2019 09:07 Dry 52.0F - 47F - - - - - - 46 mhos 4180 - None None - -
04/18/2019 08:59 Dry 49.5F - 47F - - - - - - 45 mhos 4150 - None None - -
Date/Time
(MDT)
Sf
Temp Chem Water Layer Surface Precipitation
Sfc Pvt Sub Frz Factor Pct Dpth DpthThk IcePct Cond Salin FI Type Intens Accum Rate
04/18/2019 08:57 Dry 49.5F - 47F - - - - - - 46 mhos 4287 - None None - -
04/18/2019 08:47 Dry 47.7F - 47F - - - - - - 46 mhos 4435 - None None - -
04/18/2019 08:44 Dry 46.9F - 47F - - - - - - 33 mhos 3041 - None None - -
04/18/2019 08:37 Dry 45.7F - 47F - - - - - - 7 mhos 594 - None None - -
04/18/2019 08:29 Dry 44.2F - 47F - - - - - - 37 mhos 3572 - None None - -
04/18/2019 08:27 Dry 43.7F - 47F - - - - - - 38 mhos 3748 - None None - -
04/18/2019 08:17 Dry 42.1F - 48F - - - - - - 14 mhos 1270 - None None - -
04/18/2019 08:14 Dry 41.2F - 48F - - - - - - 38 mhos 3902 - None None - -
04/18/2019 08:07 Dry 40.3F - 48F - - - - - - 36 mhos 3705 - None None - -
04/18/2019 07:59 Dry 39.0F - 48F - - - - - - 47 mhos 5211 - None None - -
04/18/2019 07:57 Dry 38.7F - 48F - - - - - - 34 mhos 3503 - None None - -
04/18/2019 07:47 Dry 37.2F - 48F - - - - - - 38 mhos 4092 - None None - -
04/18/2019 07:43 Dry 36.5F - 48F - - - - - - 40 mhos 4465 - None None - -
04/18/2019 07:37 Dry 35.6F - 48F - - - - - - 42 mhos 4780 - None None - -
04/18/2019 07:28 Dry 34.2F - 48F - - - - - - 22 mhos 2264 - None None - -
Date/Time
(MDT)
Sf
Temp Chem Water Layer Surface Precipitation
Sfc Pvt Sub Frz Factor Pct Dpth DpthThk IcePct Cond Salin FI Type Intens Accum Rate
04/18/2019 07:27 Dry 34.0F - 48F - - - - - - 36 mhos 4025 - None None - -
04/18/2019 07:17 Dry 33.4F - 48F - - - - - - 42 mhos 4842 - None None - -
04/18/2019 07:15 Dry 33.4F - 48F - - - - - - 33 mhos 3669 - None None - -
04/18/2019 07:07 Dry 33.4F - 48F - - - - - - 28 mhos 3088 - None None - -
04/18/2019 06:58 Dry 33.3F - 48F - - - - - - 16 mhos 1716 - None None - -
04/18/2019 06:57 Dry 33.3F - 48F - - - - - - 13 mhos 1350 - None None - -
04/18/2019 06:47 Dry 33.3F - 48F - - - - - - 16 mhos 1689 - None None - -
04/18/2019 06:43 Dry 33.3F - 48F - - - - - - 45 mhos 5446 - None None - -
04/18/2019 06:37 Dry 33.4F - 48F - - - - - - 44 mhos 5238 - None None - -
04/18/2019 06:28 Dry 33.6F - 48F - - - - - - 38 mhos 4303 - None None - -
04/18/2019 06:27 Dry 33.6F - 48F - - - - - - 43 mhos 5023 - None None - -
04/18/2019 06:16 Dry 33.8F - 48F - - - - - - 42 mhos 4931 - None None - -
04/18/2019 06:14 Dry 33.8F - 49F - - - - - - 14 mhos 1452 - None None - -
04/18/2019 06:06 Dry 33.8F - 49F - - - - - - 25 mhos 2660 - None None - -
04/18/2019 05:58 Dry 34.0F - 49F - - - - - - 48 mhos 5722 - None None - -
Date/Time
(MDT)
Sf
Temp Chem Water Layer Surface Precipitation
Sfc Pvt Sub Frz Factor Pct Dpth DpthThk IcePct Cond Salin FI Type Intens Accum Rate
04/18/2019 05:56 Dry 34.0F - 49F - - - - - - 45 mhos 5235 - None None - -
04/18/2019 05:46 Dry 34.2F - 49F - - - - - - 47 mhos 5602 - None None - -
04/18/2019 05:43 Dry 34.2F - 49F - - - - - - 23 mhos 2464 - None None - -
04/18/2019 05:36 Dry 34.3F - 49F - - - - - - 38 mhos 4220 - None None - -
04/18/2019 05:29 Dry 34.5F - 49F - - - - - - 41 mhos 4718 - None None - -
04/18/2019 05:26 Dry 34.7F - 49F - - - - - - 20 mhos 2115 - None None - -
04/18/2019 05:16 Dry 34.9F - 49F - - - - - - 27 mhos 2855 - None None - -
04/18/2019 05:14 Dry 34.9F - 49F - - - - - - 28 mhos 2994 - None None - -
04/18/2019 05:06 Dry 35.1F - 49F - - - - - - 15 mhos 1537 - None None - -
04/18/2019 04:59 Dry 35.2F - 49F - - - - - - 16 mhos 1616 - None None - -
04/18/2019 04:56 Dry 35.2F - 49F - - - - - - 24 mhos 2443 - None None - -
04/18/2019 04:46 Dry 35.6F - 49F - - - - - - 8 mhos 824 - None None - -
04/18/2019 04:45 Dry 35.8F - 49F - - - - - - 28 mhos 2900 - None None - -
04/18/2019 04:36 Dry 35.8F - 49F - - - - - - 18 mhos 1866 - None None - -
04/18/2019 04:29 Dry 36.0F - 49F - - - - - - 45 mhos 5203 - None None - -
Date/Time
(MDT)
Sf
Temp Chem Water Layer Surface Precipitation
Sfc Pvt Sub Frz Factor Pct Dpth DpthThk IcePct Cond Salin FI Type Intens Accum Rate
04/18/2019 04:26 Dry 36.1F - 49F - - - - - - 45 mhos 5102 - None None - -
04/18/2019 04:16 Dry 36.3F - 49F - - - - - - 40 mhos 4393 - None None - -
04/18/2019 04:13 Dry 36.3F - 49F - - - - - - 40 mhos 4348 - None None - -
04/18/2019 04:06 Dry 36.5F - 49F - - - - - - 34 mhos 3663 - None None - -
04/18/2019 04:00 Dry 36.9F - 49F - - - - - - 32 mhos 3384 - None None - -
04/18/2019 03:56 Dry 37.0F - 49F - - - - - - 15 mhos 1490 - None None - -
04/18/2019 03:46 Dry 37.4F - 49F - - - - - - 13 mhos 1253 - None None - -
04/18/2019 03:43 Dry 37.4F - 49F - - - - - - 6 mhos 589 - None None - -
04/18/2019 03:36 Dry 37.4F - 49F - - - - - - 4 mhos 366 - None None - -
04/18/2019 03:28 Dry 37.8F - 50F - - - - - - 23 mhos 2322 - None None - -
04/18/2019 03:26 Dry 37.9F - 50F - - - - - - 26 mhos 2648 - None None - -
04/18/2019 03:16 Dry 38.7F - 50F - - - - - - 22 mhos 2162 - None None - -
04/18/2019 03:13 Dry 38.7F - 50F - - - - - - 38 mhos 3995 - None None - -
04/18/2019 03:06 Dry 38.7F - 50F - - - - - - 40 mhos 4283 - None None - -
04/18/2019 02:58 Dry 38.5F - 50F - - - - - - 30 mhos 3102 - None None - -
Date/Time
(MDT)
Sf
Temp Chem Water Layer Surface Precipitation
Sfc Pvt Sub Frz Factor Pct Dpth DpthThk IcePct Cond Salin FI Type Intens Accum Rate
04/18/2019 02:56 Dry 38.5F - 50F - - - - - - 38 mhos 4014 - None None - -
04/18/2019 02:46 Dry 38.7F - 50F - - - - - - 23 mhos 2296 - None None - -
04/18/2019 02:44 Dry 38.7F - 50F - - - - - - 21 mhos 2076 - None None - -
04/18/2019 02:35 Dry 38.7F - 50F - - - - - - 11 mhos 1040 - None None - -
04/18/2019 02:29 Dry 38.7F - 50F - - - - - - 9 mhos 826 - None None - -
04/18/2019 02:25 Dry 38.7F - 50F - - - - - - 18 mhos 1780 - None None - -
04/18/2019 02:15 Dry 39.0F - 50F - - - - - - 32 mhos 3223 - None None - -
04/18/2019 02:14 Dry 39.2F - 50F - - - - - - 32 mhos 3216 - None None - -
04/18/2019 02:05 Dry 39.4F - 50F - - - - - - 32 mhos 3244 - None None - -
04/18/2019 01:59 Dry 39.7F - 50F - - - - - - 21 mhos 2004 - None None - -
04/18/2019 01:55 Dry 39.7F - 50F - - - - - - 24 mhos 2369 - None None - -
04/18/2019 01:45 Dry 39.9F - 50F - - - - - - 28 mhos 2765 - None None - -
04/18/2019 01:43 Dry 39.9F - 50F - - - - - - 19 mhos 1853 - None None - -
04/18/2019 01:35 Dry 40.1F - 50F - - - - - - 21 mhos 1972 - None None - -
04/18/2019 01:29 Dry 40.5F - 50F - - - - - - 38 mhos 3894 - None None - -
Date/Time
(MDT)
Sf
Temp Chem Water Layer Surface Precipitation
Sfc Pvt Sub Frz Factor Pct Dpth DpthThk IcePct Cond Salin FI Type Intens Accum Rate
04/18/2019 01:25 Dry 40.6F - 50F - - - - - - 28 mhos 2716 - None None - -
04/18/2019 01:15 Dry 41.2F - 50F - - - - - - 14 mhos 1291 - None None - -
04/18/2019 01:14 Dry 41.2F - 50F - - - - - - 16 mhos 1532 - None None - -
04/18/2019 01:05 Dry 41.2F - 50F - - - - - - 19 mhos 1742 - None None - -
04/18/2019 00:59 Dry 41.4F - 50F - - - - - - 19 mhos 1743 - None None - -
04/18/2019 00:55 Dry 41.5F - 50F - - - - - - 23 mhos 2140 - None None - -
04/18/2019 00:45 Dry 42.1F - 51F - - - - - - 27 mhos 2547 - None None - -
04/18/2019 00:44 Dry 42.1F - 50F - - - - - - 31 mhos 2994 - None None - -
04/18/2019 00:35 Dry 42.4F - 51F - - - - - - 28 mhos 2709 - None None - -
04/18/2019 00:29 Dry 42.6F - 51F - - - - - - 17 mhos 1605 - None None - -
04/18/2019 00:25 Dry 43.0F - 51F - - - - - - 22 mhos 1998 - None None - -
04/18/2019 00:15 Dry 43.7F - 51F - - - - - - 40 mhos 3959 - None None - -
04/18/2019 00:14 Dry 43.7F - 51F - - - - - - 39 mhos 3816 - None None - -
04/18/2019 00:05 Dry 44.1F - 51F - - - - - - 29 mhos 2678 - None None - -
04/17/2019 23:59 Dry 44.4F - 51F - - - - - - 24 mhos 2190 - None None - -
Date/Time
(MDT)
Sf
Temp Chem Water Layer Surface Precipitation
Sfc Pvt Sub Frz Factor Pct Dpth DpthThk IcePct Cond Salin FI Type Intens Accum Rate
04/17/2019 23:55 Dry 44.8F - 51F - - - - - - 30 mhos 2774 - None None - -
04/17/2019 23:45 Dry 45.3F - 51F - - - - - - 23 mhos 2107 - None None - -
04/17/2019 23:44 Dry 45.3F - 51F - - - - - - 23 mhos 2068 - None None - -
04/17/2019 23:35 Dry 45.5F - 51F - - - - - - 20 mhos 1798 - None None - -
04/17/2019 23:29 Dry 45.5F - 51F - - - - - - 20 mhos 1804 - None None - -
04/17/2019 23:25 Dry 45.5F - 51F - - - - - - 12 mhos 1001 - None None - -
04/17/2019 23:15 Dry 45.1F - 51F - - - - - - 22 mhos 2034 - None None - -
04/17/2019 23:14 Dry 45.1F - 51F - - - - - - 33 mhos 3146 - None None - -
04/17/2019 23:05 Dry 45.0F - 51F - - - - - - 25 mhos 2321 - None None - -
04/17/2019 22:59 Dry 44.6F - 51F - - - - - - 6 mhos 524 - None None - -
04/17/2019 22:54 Dry 44.8F - 51F - - - - - - 17 mhos 1478 - None None - -
04/17/2019 22:44 Dry 44.8F - 51F - - - - - - 24 mhos 2165 - None None - -
04/17/2019 22:44 Dry 44.8F - 51F - - - - - - 24 mhos 2165 - None None - -
Change End Date:

Copyright © 1998-2015 Vaisala, Inc.
All Rights Reserved
Send comments about the data to:
SCAN Web ® is a registered trademark of Vaisala, Inc.
SCAN Web Version 6.0